Time;durP1;ratioP1;P1;durP2;ratioP2;P2;SDS_P1;SDS_P2;PMS_P1;PMS_P2;Temp;Humidity;BMP_temperature;BMP_pressure;BME280_temperature;BME280_humidity;BME280_pressure;Samples;Min_cycle;Max_cycle;Signal;HPM_P1;HPM_P2
2023/06/14 00:01:13;;;;;;;6.27;3.80;;;6.00;99.90;;;;;;8267915;28;20200;-67
2023/06/14 00:05:14;;;;;;;4.83;3.63;;;6.10;99.90;;;;;;8281847;28;20247;-68
2023/06/14 00:09:17;;;;;;;3.93;3.30;;;6.10;1.00;;;;;;8273110;28;20198;-68
2023/06/14 00:13:18;;;;;;;3.93;3.30;;;6.00;99.90;;;;;;8265486;28;20277;-68
2023/06/14 00:17:19;;;;;;;4.20;3.23;;;5.90;99.90;;;;;;8256170;28;20217;-67
2023/06/14 00:21:20;;;;;;;3.97;3.30;;;5.80;1.00;;;;;;8269030;28;20225;-67
2023/06/14 00:25:23;;;;;;;4.43;3.60;;;5.70;99.90;;;;;;8273178;28;20211;-69
2023/06/14 00:29:25;;;;;;;4.33;3.00;;;5.70;1.00;;;;;;8253207;28;20261;-69
2023/06/14 00:33:28;;;;;;;5.10;3.50;;;5.70;99.90;;;;;;8256471;28;20211;-67
2023/06/14 00:37:29;;;;;;;5.93;3.57;;;5.60;1.00;;;;;;8270152;28;20188;-69
2023/06/14 00:41:30;;;;;;;7.00;4.10;;;5.60;68.70;;;;;;8262063;28;20239;-67
2023/06/14 00:45:35;;;;;;;5.07;4.20;;;5.70;1.00;;;;;;8272961;28;20177;-67
2023/06/14 00:49:36;;;;;;;4.73;3.50;;;5.70;99.90;;;;;;8273083;28;20187;-68
2023/06/14 00:53:39;;;;;;;5.03;3.83;;;5.60;38.40;;;;;;8265063;28;20206;-66
2023/06/14 00:57:41;;;;;;;5.37;3.57;;;5.60;99.90;;;;;;8274665;28;20291;-68
2023/06/14 01:01:42;;;;;;;6.63;3.10;;;5.50;99.90;;;;;;8256341;28;20203;-70
2023/06/14 01:05:48;;;;;;;4.63;3.13;;;5.50;1.00;;;;;;8271952;28;20226;-68
2023/06/14 01:10:17;;;;;;;4.13;3.20;;;5.40;99.90;;;;;;8266341;28;20183;-67
2023/06/14 01:14:19;;;;;;;3.60;2.97;;;5.40;99.90;;;;;;8250206;28;20231;-69
2023/06/14 01:18:24;;;;;;;4.60;4.00;;;5.40;99.90;;;;;;8270026;28;20269;-69
2023/06/14 01:22:27;;;;;;;5.03;4.17;;;5.40;99.90;;;;;;8270091;28;20217;-68
2023/06/14 01:26:29;;;;;;;5.83;3.80;;;5.50;99.90;;;;;;8257915;28;20257;-70
2023/06/14 01:30:30;;;;;;;4.60;3.43;;;5.40;99.90;;;;;;8275304;28;20217;-68
2023/06/14 01:34:31;;;;;;;4.60;3.20;;;5.30;1.00;;;;;;8268643;28;20256;-67
2023/06/14 01:38:33;;;;;;;3.50;2.90;;;5.20;1.00;;;;;;8287019;28;20192;-69
2023/06/14 01:42:38;;;;;;;5.63;3.53;;;5.10;1.00;;;;;;8253965;28;20207;-72
2023/06/14 01:46:41;;;;;;;5.17;3.67;;;5.10;99.90;;;;;;8259045;28;20188;-71
2023/06/14 01:50:42;;;;;;;5.00;3.40;;;5.10;99.90;;;;;;8268139;28;20275;-72
2023/06/14 01:54:43;;;;;;;4.17;2.90;;;5.10;1.00;;;;;;8272044;28;20244;-68
2023/06/14 01:58:44;;;;;;;3.80;3.20;;;5.00;1.00;;;;;;8254984;28;20195;-68
2023/06/14 02:02:45;;;;;;;4.57;3.30;;;4.90;99.90;;;;;;8258311;28;20223;-67
2023/06/14 02:06:46;;;;;;;4.13;3.30;;;4.90;99.90;;;;;;8255789;28;20216;-68
2023/06/14 02:10:47;;;;;;;4.27;3.43;;;4.90;1.00;;;;;;8257924;28;20292;-67
2023/06/14 02:14:48;;;;;;;4.70;3.50;;;4.80;99.90;;;;;;8284851;28;20191;-68
2023/06/14 02:18:51;;;;;;;4.90;3.47;;;4.70;99.90;;;;;;8269564;28;20222;-67
2023/06/14 02:22:51;;;;;;;4.80;3.70;;;4.70;99.90;;;;;;8256629;28;20215;-67
2023/06/14 02:26:53;;;;;;;4.03;3.00;;;4.70;1.00;;;;;;8258395;28;20196;-67
2023/06/14 02:30:53;;;;;;;4.57;3.17;;;4.70;1.00;;;;;;8253625;28;20271;-66
2023/06/14 02:34:54;;;;;;;4.87;3.60;;;4.60;1.00;;;;;;8268528;28;20184;-67
2023/06/14 02:38:58;;;;;;;4.30;3.57;;;4.60;1.00;;;;;;8272423;28;20183;-68
2023/06/14 02:42:59;;;;;;;5.50;3.43;;;4.50;1.00;;;;;;8264263;28;20212;-67
2023/06/14 02:47:00;;;;;;;4.60;3.63;;;4.50;1.00;;;;;;8253339;28;20195;-67
2023/06/14 02:51:01;;;;;;;4.33;3.83;;;4.50;99.90;;;;;;8250650;28;20191;-68
2023/06/14 02:55:02;;;;;;;3.90;3.50;;;4.60;99.90;;;;;;8269613;28;20204;-66
2023/06/14 02:59:03;;;;;;;4.77;3.10;;;4.60;99.90;;;;;;8252040;28;20260;-70
2023/06/14 03:03:04;;;;;;;4.97;3.87;;;4.60;99.90;;;;;;8267786;28;20314;-70
2023/06/14 03:07:08;;;;;;;5.90;4.60;;;4.80;99.90;;;;;;8280098;28;20214;-70
2023/06/14 03:11:09;;;;;;;4.00;3.60;;;4.90;99.90;;;;;;8252555;28;20193;-71
2023/06/14 03:15:12;;;;;;;4.17;3.77;;;5.10;99.90;;;;;;8265317;28;20191;-70
2023/06/14 03:19:16;;;;;;;3.60;3.10;;;5.20;99.90;;;;;;8257318;28;20210;-69
2023/06/14 03:23:21;;;;;;;4.37;3.90;;;5.30;99.90;;;;;;8279903;28;20318;-70
2023/06/14 03:27:22;;;;;;;6.00;4.60;;;5.50;99.90;;;;;;8258547;28;20231;-69
2023/06/14 03:31:23;;;;;;;5.53;4.10;;;5.80;99.90;;;;;;8263706;28;20199;-69
2023/06/14 03:35:24;;;;;;;5.07;4.00;;;6.10;99.90;;;;;;8254346;28;20200;-69
2023/06/14 03:39:25;;;;;;;6.63;4.63;;;6.40;99.90;;;;;;8264591;28;20277;-70
2023/06/14 03:43:27;;;;;;;6.73;5.30;;;6.60;99.90;;;;;;8250393;28;20219;-69
2023/06/14 03:47:28;;;;;;;5.07;3.83;;;6.70;99.90;;;;;;8265627;28;20193;-69
2023/06/14 03:51:29;;;;;;;5.47;4.13;;;6.90;99.90;;;;;;8255463;28;20218;-68
2023/06/14 03:55:33;;;;;;;5.80;4.07;;;7.00;1.00;;;;;;8255691;28;20198;-69
2023/06/14 03:59:35;;;;;;;4.37;3.97;;;7.10;8.50;;;;;;8256663;28;20197;-68
2023/06/14 04:03:36;;;;;;;44.63;24.23;;;7.20;1.00;;;;;;8254094;28;20226;-68
2023/06/14 04:07:44;;;;;;;13.80;9.37;;;7.40;99.90;;;;;;8262236;28;20352;-69
2023/06/14 04:11:45;;;;;;;10.63;7.20;;;7.60;99.90;;;;;;8252939;28;20203;-68
2023/06/14 04:15:49;;;;;;;6.03;4.27;;;7.80;99.90;;;;;;8249200;28;20196;-69
2023/06/14 04:19:51;;;;;;;3.97;3.43;;;9.40;99.90;;;;;;8264373;28;20234;-68
2023/06/14 04:23:52;;;;;;;4.63;3.50;;;11.60;99.90;;;;;;8252738;28;20281;-68
2023/06/14 04:27:54;;;;;;;4.13;3.40;;;13.20;99.90;;;;;;8251186;28;20192;-67
2023/06/14 04:31:58;;;;;;;3.37;2.70;;;13.20;1.00;;;;;;8248599;28;20191;-66
2023/06/14 04:35:59;;;;;;;4.83;3.57;;;12.30;1.00;;;;;;8259311;28;20282;-67
2023/06/14 04:40:00;;;;;;;4.17;3.43;;;11.70;1.00;;;;;;8250658;28;20196;-67
2023/06/14 04:44:02;;;;;;;4.90;3.63;;;11.30;1.00;;;;;;8262844;28;20224;-68
2023/06/14 04:48:03;;;;;;;5.57;4.97;;;11.30;1.00;;;;;;8250747;28;20202;-67
2023/06/14 04:52:04;;;;;;;7.73;5.87;;;11.50;1.00;;;;;;8250300;28;20198;-67
2023/06/14 04:56:05;;;;;;;5.50;4.97;;;11.90;1.00;;;;;;8252948;28;20192;-66
2023/06/14 05:00:11;;;;;;;9.20;5.73;;;12.10;1.00;;;;;;8264952;28;20199;-66
2023/06/14 05:04:12;;;;;;;7.17;5.40;;;12.00;1.00;;;;;;8256694;28;20339;-66
2023/06/14 05:08:13;;;;;;;5.73;5.00;;;11.60;1.00;;;;;;8271195;28;20264;-67
2023/06/14 05:12:18;;;;;;;4.60;4.17;;;11.50;26.10;;;;;;8259072;28;20239;-68
2023/06/14 05:16:20;;;;;;;5.63;5.13;;;11.60;29.80;;;;;;8277612;28;20214;-67
2023/06/14 05:20:24;;;;;;;5.13;4.63;;;11.70;33.00;;;;;;8269702;28;20269;-71
2023/06/14 05:24:25;;;;;;;8.30;5.23;;;11.90;40.70;;;;;;8288064;28;20191;-67
2023/06/14 05:28:26;;;;;;;5.73;5.13;;;12.10;36.10;;;;;;8258316;28;20276;-67
2023/06/14 05:32:27;;;;;;;6.67;6.07;;;12.30;20.00;;;;;;8269502;28;20194;-66
2023/06/14 05:36:28;;;;;;;6.80;5.00;;;12.30;21.50;;;;;;8259446;28;20225;-67
2023/06/14 05:40:29;;;;;;;5.57;4.90;;;12.40;24.40;;;;;;8258511;28;20191;-68
2023/06/14 05:44:32;;;;;;;9.30;5.80;;;12.70;23.10;;;;;;8269464;28;20184;-69
2023/06/14 05:48:34;;;;;;;9.27;6.77;;;12.80;13.00;;;;;;8270864;28;20189;-68
2023/06/14 05:52:36;;;;;;;7.73;6.57;;;13.10;1.00;;;;;;8250366;28;20222;-67
2023/06/14 05:56:37;;;;;;;7.13;6.30;;;13.30;1.00;;;;;;8256279;28;20288;-68
2023/06/14 06:00:38;;;;;;;8.20;6.57;;;13.60;1.00;;;;;;8253360;28;20287;-68
2023/06/14 06:04:39;;;;;;;12.90;11.50;;;14.00;1.00;;;;;;8256533;28;20280;-68
2023/06/14 06:08:40;;;;;;;9.77;8.13;;;14.30;1.00;;;;;;8253644;28;20303;-68
2023/06/14 06:12:48;;;;;;;10.77;6.60;;;14.60;1.00;;;;;;8284002;28;20198;-68
2023/06/14 06:16:49;;;;;;;8.53;7.00;;;14.70;1.00;;;;;;8253391;28;20198;-67
2023/06/14 06:20:51;;;;;;;8.03;6.10;;;14.90;1.00;;;;;;8256672;28;20203;-68
2023/06/14 06:24:52;;;;;;;8.00;6.97;;;15.20;1.00;;;;;;8269894;28;20180;-67
2023/06/14 06:28:53;;;;;;;6.70;6.00;;;15.70;1.00;;;;;;8284598;28;20191;-67
2023/06/14 06:32:55;;;;;;;7.40;5.77;;;15.80;1.00;;;;;;8256327;28;20187;-68
2023/06/14 06:36:56;;;;;;;6.53;5.83;;;15.90;1.00;;;;;;8266808;28;20199;-67
2023/06/14 06:40:57;;;;;;;7.57;6.10;;;16.20;1.00;;;;;;8269900;28;20199;-67
2023/06/14 06:44:58;;;;;;;9.53;6.60;;;16.20;1.00;;;;;;8254333;28;20198;-68
2023/06/14 06:49:00;;;;;;;9.17;6.77;;;15.90;1.00;;;;;;8254377;28;20190;-66
2023/06/14 06:53:01;;;;;;;7.53;6.27;;;16.20;1.00;;;;;;8268253;28;20202;-66
2023/06/14 06:57:02;;;;;;;7.30;6.47;;;16.40;1.00;;;;;;8284672;28;20225;-67
2023/06/14 07:01:03;;;;;;;6.23;5.60;;;16.80;1.00;;;;;;8251205;28;20268;-67
2023/06/14 07:05:04;;;;;;;7.53;5.33;;;17.30;1.00;;;;;;8254489;28;20246;-69
2023/06/14 07:09:12;;;;;;;5.67;4.87;;;17.00;1.00;;;;;;8257139;28;20206;-67
2023/06/14 07:13:13;;;;;;;5.83;5.27;;;16.60;1.00;;;;;;8258200;28;20200;-68
2023/06/14 07:17:15;;;;;;;4.90;4.20;;;16.30;1.00;;;;;;8265908;28;20295;-66
2023/06/14 07:21:15;;;;;;;7.23;5.30;;;16.10;1.00;;;;;;8268794;28;20211;-67
2023/06/14 07:25:20;;;;;;;6.50;5.80;;;16.70;1.00;;;;;;8282438;28;20237;-67
2023/06/14 07:29:21;;;;;;;7.67;4.80;;;17.20;1.00;;;;;;8253330;28;20192;-67
2023/06/14 07:33:22;;;;;;;5.50;4.87;;;17.30;1.00;;;;;;8266768;28;20207;-66
2023/06/14 07:37:26;;;;;;;5.60;4.87;;;17.60;1.00;;;;;;8257631;28;20230;-67
2023/06/14 07:41:27;;;;;;;6.80;5.20;;;17.80;1.00;;;;;;8256336;28;20213;-67
2023/06/14 07:45:28;;;;;;;6.70;4.80;;;17.80;1.00;;;;;;8269470;28;20200;-67
2023/06/14 07:49:29;;;;;;;6.60;5.00;;;17.80;1.00;;;;;;8252295;28;20188;-65
2023/06/14 07:53:30;;;;;;;5.80;5.00;;;18.20;1.00;;;;;;8256177;28;20202;-67
2023/06/14 07:57:35;;;;;;;6.27;5.00;;;17.70;1.00;;;;;;8278769;28;20286;-67
2023/06/14 08:01:36;;;;;;;5.23;4.73;;;17.30;1.00;;;;;;8256596;28;20211;-67
2023/06/14 08:05:36;;;;;;;4.63;4.23;;;17.60;1.00;;;;;;8265554;28;20221;-68
2023/06/14 08:09:38;;;;;;;5.60;4.40;;;18.30;1.00;;;;;;8263756;28;20279;-68
2023/06/14 08:13:38;;;;;;;5.40;4.50;;;18.10;1.00;;;;;;8267907;28;20267;-67
2023/06/14 08:17:40;;;;;;;6.60;4.07;;;18.50;1.00;;;;;;8266465;28;20187;-68
2023/06/14 08:21:41;;;;;;;4.97;4.47;;;19.00;1.00;;;;;;8265394;28;20214;-66
2023/06/14 08:25:42;;;;;;;8.53;4.13;;;19.40;1.00;;;;;;8263514;28;20198;-67
2023/06/14 08:29:43;;;;;;;4.40;3.97;;;19.90;1.00;;;;;;8252731;28;20187;-67
2023/06/14 08:33:45;;;;;;;5.37;4.33;;;19.90;1.00;;;;;;8250697;28;20199;-69
2023/06/14 08:37:46;;;;;;;6.27;5.00;;;20.20;1.00;;;;;;8264053;28;20195;-67
2023/06/14 08:41:50;;;;;;;4.40;3.73;;;20.80;1.00;;;;;;8271160;28;20273;-68
2023/06/14 08:45:58;;;;;;;4.97;4.30;;;21.30;1.00;;;;;;8254917;28;20301;-69
2023/06/14 08:49:59;;;;;;;6.33;4.93;;;21.60;1.00;;;;;;8268696;28;20302;-67
2023/06/14 08:54:01;;;;;;;7.30;5.33;;;21.10;1.00;;;;;;8274180;28;20191;-66
2023/06/14 08:58:05;;;;;;;5.73;4.97;;;21.20;1.00;;;;;;8273098;28;20202;-68
2023/06/14 09:02:06;;;;;;;5.07;4.37;;;20.80;1.00;;;;;;8273049;28;20215;-69
2023/06/14 09:06:13;;;;;;;6.27;5.33;;;21.20;1.00;;;;;;8270917;28;20219;-67
2023/06/14 09:10:15;;;;;;;8.00;6.33;;;21.50;1.00;;;;;;8256189;28;20215;-70
2023/06/14 09:14:18;;;;;;;5.63;5.03;;;21.50;1.00;;;;;;8274094;28;20191;-69
2023/06/14 09:18:21;;;;;;;5.33;4.83;;;21.60;1.00;;;;;;8286635;28;20229;-70
2023/06/14 09:22:22;;;;;;;4.73;4.23;;;21.20;1.00;;;;;;8274563;28;20218;-69
2023/06/14 09:26:31;;;;;;;4.87;4.20;;;21.10;1.00;;;;;;8261251;28;20207;-69
2023/06/14 09:30:36;;;;;;;6.20;4.90;;;21.40;1.00;;;;;;8258139;28;20188;-68
2023/06/14 09:34:40;;;;;;;6.83;5.67;;;21.00;1.00;;;;;;8270850;28;20187;-69
2023/06/14 09:38:41;;;;;;;5.10;4.60;;;21.00;1.00;;;;;;8259571;28;20187;-68
2023/06/14 09:42:44;;;;;;;6.10;5.30;;;20.50;1.00;;;;;;8259125;28;20293;-69
2023/06/14 09:46:48;;;;;;;5.67;4.80;;;20.40;1.00;;;;;;8271908;28;20206;-67
2023/06/14 09:50:51;;;;;;;5.20;4.70;;;20.10;1.00;;;;;;8268796;28;20202;-67
2023/06/14 09:54:54;;;;;;;5.20;4.73;;;20.50;1.00;;;;;;8257231;28;20195;-69
2023/06/14 09:58:59;;;;;;;5.03;4.53;;;21.10;1.00;;;;;;8258926;28;20194;-70
2023/06/14 10:03:18;;;;;;;5.10;4.60;;;21.10;1.00;;;;;;8262733;28;20233;-68
2023/06/14 10:07:20;;;;;;;5.50;5.00;;;21.40;1.00;;;;;;8258099;28;20214;-69
2023/06/14 10:11:21;;;;;;;6.60;5.53;;;21.60;1.00;;;;;;8284361;28;20195;-68
2023/06/14 10:15:54;;;;;;;5.77;4.97;;;22.20;1.00;;;;;;8255216;28;20286;-67
2023/06/14 10:20:17;;;;;;;5.30;4.80;;;22.80;99.90;;;;;;8254043;28;20203;-66
2023/06/14 10:24:25;;;;;;;5.10;4.63;;;22.00;99.90;;;;;;8269646;28;20269;-67
2023/06/14 10:28:26;;;;;;;4.53;3.93;;;21.50;99.90;;;;;;8269735;28;20195;-69
2023/06/14 10:32:28;;;;;;;5.33;4.47;;;21.80;99.90;;;;;;8286621;28;20184;-68
2023/06/14 10:36:34;;;;;;;7.10;4.37;;;21.30;99.90;;;;;;8266042;28;20302;-68
2023/06/14 10:40:37;;;;;;;5.77;4.60;;;21.50;99.90;;;;;;8256875;28;20194;-67
2023/06/14 10:44:51;;;;;;;5.07;4.27;;;21.50;99.90;;;;;;8267795;28;20229;-68
2023/06/14 10:48:58;;;;;;;5.00;4.50;;;22.20;99.90;;;;;;8253065;28;20192;-67
2023/06/14 10:53:00;;;;;;;5.50;4.23;;;22.50;99.90;;;;;;8268517;28;20202;-66
2023/06/14 10:57:01;;;;;;;5.00;4.10;;;21.80;99.90;;;;;;8259390;28;20289;-73
2023/06/14 11:01:02;;;;;;;4.30;3.90;;;21.30;99.90;;;;;;8274999;28;20214;-73
2023/06/14 11:05:05;;;;;;;4.67;4.17;;;21.70;99.90;;;;;;8274334;28;20210;-75
2023/06/14 11:09:24;;;;;;;5.20;4.70;;;22.40;99.90;;;;;;8255835;28;20220;-72
2023/06/14 11:13:26;;;;;;;4.83;4.43;;;23.10;99.90;;;;;;8270306;28;20200;-72
2023/06/14 11:17:27;;;;;;;5.30;4.27;;;23.60;99.90;;;;;;8255986;28;20218;-74
2023/06/14 11:21:31;;;;;;;4.47;4.17;;;23.60;99.90;;;;;;8274128;28;20239;-74
2023/06/14 11:25:32;;;;;;;4.60;4.20;;;23.20;99.90;;;;;;8274985;28;20273;-74
2023/06/14 11:29:33;;;;;;;4.37;3.97;;;22.80;99.90;;;;;;8276583;28;20194;-73
2023/06/14 11:33:37;;;;;;;5.17;4.43;;;22.50;99.90;;;;;;8279566;28;20187;-72
2023/06/14 11:37:47;;;;;;;5.10;4.60;;;22.20;99.90;;;;;;8261034;28;20195;-73
2023/06/14 11:41:48;;;;;;;5.47;4.83;;;22.10;99.90;;;;;;8278890;28;20286;-72
2023/06/14 11:45:50;;;;;;;6.27;5.10;;;22.20;99.90;;;;;;8277536;28;20196;-74
2023/06/14 11:49:51;;;;;;;4.83;4.43;;;22.20;99.90;;;;;;8272822;28;20195;-73
2023/06/14 11:53:52;;;;;;;5.13;4.40;;;22.30;99.90;;;;;;8274396;28;20234;-73
2023/06/14 11:57:56;;;;;;;6.27;4.60;;;22.30;99.90;;;;;;8264226;28;20191;-73
2023/06/14 12:01:57;;;;;;;4.93;4.53;;;22.10;99.90;;;;;;8286107;28;20211;-73
2023/06/14 12:06:07;;;;;;;5.47;4.53;;;21.80;99.90;;;;;;8272220;28;20215;-72
2023/06/14 12:10:10;;;;;;;5.03;4.03;;;21.80;99.90;;;;;;8279260;28;20187;-72
2023/06/14 12:14:11;;;;;;;4.10;3.70;;;22.00;99.90;;;;;;8265827;28;20201;-74
2023/06/14 12:18:12;;;;;;;4.23;3.80;;;22.30;99.90;;;;;;8267819;28;20190;-72
2023/06/14 12:22:13;;;;;;;4.17;3.77;;;22.20;99.90;;;;;;8263014;28;20247;-74
2023/06/14 12:26:16;;;;;;;5.03;4.33;;;22.30;99.90;;;;;;8263009;28;20184;-69
2023/06/14 12:30:17;;;;;;;7.03;6.33;;;21.80;99.90;;;;;;8261676;28;20219;-73
2023/06/14 12:34:18;;;;;;;4.03;3.40;;;21.90;99.90;;;;;;8276841;28;20199;-72
2023/06/14 12:38:22;;;;;;;15.13;5.87;;;21.70;99.90;;;;;;8276208;28;20202;-73
2023/06/14 12:42:23;;;;;;;5.10;3.57;;;21.70;99.90;;;;;;8272138;28;20243;-69
2023/06/14 12:46:31;;;;;;;4.57;3.70;;;22.00;99.90;;;;;;8278506;28;20199;-70
2023/06/14 12:50:32;;;;;;;5.63;3.10;;;22.20;99.90;;;;;;8274985;28;20186;-72
2023/06/14 12:54:34;;;;;;;8.23;3.33;;;22.00;99.90;;;;;;8259517;28;20219;-68
2023/06/14 12:58:35;;;;;;;4.60;3.57;;;21.60;99.90;;;;;;8272713;28;20203;-73
2023/06/14 13:02:36;;;;;;;5.10;4.10;;;20.90;1.00;;;;;;8263244;28;20215;-70
2023/06/14 13:06:37;;;;;;;4.77;3.87;;;20.40;1.00;;;;;;8272146;28;20195;-68
2023/06/14 13:10:38;;;;;;;4.37;3.97;;;19.90;1.00;;;;;;8277930;28;20187;-71
2023/06/14 13:14:43;;;;;;;4.90;4.40;;;18.90;1.00;;;;;;8272264;28;20195;-72
2023/06/14 13:18:47;;;;;;;9.13;5.53;;;18.00;1.00;;;;;;8259655;28;20187;-70
2023/06/14 13:22:49;;;;;;;8.10;5.77;;;17.50;1.00;;;;;;8256348;28;20226;-70
2023/06/14 13:26:50;;;;;;;7.50;5.63;;;17.40;30.10;;;;;;8287594;28;20191;-69
2023/06/14 13:30:51;;;;;;;5.53;4.73;;;17.70;39.80;;;;;;8252456;28;20282;-69
2023/06/14 13:34:52;;;;;;;6.80;5.40;;;17.90;1.00;;;;;;8254135;28;20215;-70
2023/06/14 13:38:54;;;;;;;4.10;3.70;;;18.20;1.00;;;;;;8252423;28;20195;-70
2023/06/14 13:42:58;;;;;;;6.17;4.17;;;18.20;1.00;;;;;;8288326;28;20211;-71
2023/06/14 13:47:00;;;;;;;7.00;3.77;;;18.20;1.00;;;;;;8289036;28;20278;-72
2023/06/14 13:51:04;;;;;;;5.20;3.53;;;18.40;1.00;;;;;;8289188;28;20191;-74
2023/06/14 13:55:09;;;;;;;3.60;3.30;;;18.90;1.00;;;;;;8269062;28;20191;-73
2023/06/14 13:59:10;;;;;;;4.17;3.17;;;19.50;1.00;;;;;;8262593;28;20199;-73
2023/06/14 14:03:11;;;;;;;5.47;3.27;;;20.00;1.00;;;;;;8277825;28;20253;-73
2023/06/14 14:07:12;;;;;;;3.47;3.17;;;20.40;1.00;;;;;;8266992;28;20234;-67
2023/06/14 14:11:13;;;;;;;3.83;3.33;;;20.70;1.00;;;;;;8267922;28;20196;-66
2023/06/14 14:15:15;;;;;;;3.90;2.90;;;21.20;1.00;;;;;;8256322;28;20199;-66
2023/06/14 14:19:16;;;;;;;2.83;2.63;;;21.30;1.00;;;;;;8267938;28;20199;-68
2023/06/14 14:23:17;;;;;;;4.07;3.67;;;21.10;1.00;;;;;;8271820;28;20251;-66
2023/06/14 14:27:18;;;;;;;3.00;2.80;;;21.00;1.00;;;;;;8271493;28;20198;-66
2023/06/14 14:31:19;;;;;;;3.67;2.90;;;20.70;1.00;;;;;;8257368;28;20204;-67
2023/06/14 14:35:20;;;;;;;3.93;2.93;;;20.60;1.00;;;;;;8268514;28;20225;-66
2023/06/14 14:39:30;;;;;;;3.60;2.77;;;20.50;1.00;;;;;;8253698;28;20264;-66
2023/06/14 14:43:32;;;;;;;2.50;2.30;;;20.70;1.00;;;;;;8268399;28;20211;-68
2023/06/14 14:47:33;;;;;;;3.53;2.87;;;21.20;1.00;;;;;;8255704;28;20351;-67
2023/06/14 14:51:33;;;;;;;2.83;2.53;;;21.70;1.00;;;;;;8266095;28;20205;-67
2023/06/14 14:55:37;;;;;;;5.03;3.00;;;22.10;1.00;;;;;;8257452;28;20191;-68
2023/06/14 14:59:38;;;;;;;5.63;2.93;;;22.30;1.00;;;;;;8254728;28;20211;-67
2023/06/14 15:03:39;;;;;;;4.73;2.70;;;22.70;1.00;;;;;;8270770;28;20225;-69
2023/06/14 15:07:40;;;;;;;5.27;3.47;;;22.80;1.00;;;;;;8254196;28;20238;-67
2023/06/14 15:11:43;;;;;;;4.80;3.00;;;22.60;1.00;;;;;;8268789;28;20192;-67
2023/06/14 15:15:44;;;;;;;4.47;2.97;;;22.40;1.00;;;;;;8252667;28;20184;-67
2023/06/14 15:19:48;;;;;;;4.23;2.80;;;22.50;99.90;;;;;;8272369;28;20270;-66
2023/06/14 15:23:49;;;;;;;3.93;2.70;;;22.60;99.90;;;;;;8266352;28;20215;-67
2023/06/14 15:27:50;;;;;;;8.83;2.73;;;22.60;99.90;;;;;;8269111;28;20183;-66
2023/06/14 15:31:54;;;;;;;4.90;2.90;;;22.50;99.90;;;;;;8254284;28;20233;-68
2023/06/14 15:35:55;;;;;;;3.60;2.33;;;22.40;99.90;;;;;;8264545;28;20223;-66
2023/06/14 15:39:56;;;;;;;4.87;2.27;;;22.30;99.90;;;;;;8267555;28;20190;-67
2023/06/14 15:43:57;;;;;;;3.43;2.53;;;22.20;99.90;;;;;;8267203;28;20219;-69
2023/06/14 15:47:59;;;;;;;5.63;3.17;;;22.10;99.90;;;;;;8252835;28;20210;-66
2023/06/14 15:52:01;;;;;;;3.20;2.90;;;22.10;99.90;;;;;;8256646;28;20195;-69
2023/06/14 15:56:05;;;;;;;4.07;3.03;;;21.90;99.90;;;;;;8266879;28;20187;-68
2023/06/14 16:00:09;;;;;;;5.47;2.80;;;21.80;99.90;;;;;;8266581;28;20187;-68
2023/06/14 16:04:10;;;;;;;4.00;2.40;;;21.70;99.90;;;;;;8251268;28;20265;-67
2023/06/14 16:08:11;;;;;;;3.47;2.53;;;21.60;99.90;;;;;;8268192;28;20288;-67
2023/06/14 16:12:13;;;;;;;3.90;3.00;;;21.40;99.90;;;;;;8266431;28;20195;-65
2023/06/14 16:16:15;;;;;;;5.80;4.33;;;21.30;99.90;;;;;;8268765;28;20234;-66
2023/06/14 16:20:16;;;;;;;4.90;3.13;;;21.50;99.90;;;;;;8265683;28;20187;-66
2023/06/14 16:24:18;;;;;;;4.57;2.70;;;21.70;99.90;;;;;;8250961;28;20307;-66
2023/06/14 16:28:19;;;;;;;6.73;2.50;;;21.90;99.90;;;;;;8262978;28;20199;-70
2023/06/14 16:32:20;;;;;;;4.43;2.57;;;22.20;99.90;;;;;;8252175;28;20180;-68
2023/06/14 16:36:22;;;;;;;5.67;3.00;;;22.20;99.90;;;;;;8248886;28;20203;-65
2023/06/14 16:40:23;;;;;;;3.00;2.37;;;22.10;99.90;;;;;;8252993;28;20230;-68
2023/06/14 16:44:25;;;;;;;5.37;2.70;;;22.00;99.90;;;;;;8265638;28;20222;-69
2023/06/14 16:48:29;;;;;;;3.80;2.83;;;21.80;99.90;;;;;;8246498;28;20199;-67
2023/06/14 16:52:29;;;;;;;3.60;2.70;;;21.50;99.90;;;;;;8267170;28;20191;-66
2023/06/14 16:56:31;;;;;;;6.50;3.27;;;21.10;99.90;;;;;;8248231;28;20321;-69
2023/06/14 17:00:32;;;;;;;5.80;3.40;;;20.70;99.90;;;;;;8257667;28;20223;-70
2023/06/14 17:04:33;;;;;;;5.23;2.97;;;20.40;99.90;;;;;;8273301;28;20222;-68
2023/06/14 17:08:34;;;;;;;7.47;2.30;;;20.20;99.90;;;;;;8273202;28;20223;-70
2023/06/14 17:12:35;;;;;;;6.37;3.13;;;20.10;1.00;;;;;;8271254;28;20179;-69
2023/06/14 17:16:36;;;;;;;4.63;2.60;;;20.00;1.00;;;;;;8274503;28;20175;-70
2023/06/14 17:20:37;;;;;;;3.40;2.97;;;19.80;1.00;;;;;;8270948;28;20344;-68
2023/06/14 17:24:38;;;;;;;5.03;2.50;;;19.60;1.00;;;;;;8270972;28;20222;-69
2023/06/14 17:28:39;;;;;;;7.33;3.37;;;19.50;1.00;;;;;;8258365;28;20189;-68
2023/06/14 17:32:40;;;;;;;4.10;2.67;;;19.40;1.00;;;;;;8268228;28;20211;-67
2023/06/14 17:36:43;;;;;;;5.57;3.60;;;19.30;1.00;;;;;;8270042;28;20179;-67
2023/06/14 17:40:44;;;;;;;9.10;5.90;;;19.30;1.00;;;;;;8255492;28;20197;-67
2023/06/14 17:44:45;;;;;;;9.30;6.77;;;19.20;1.00;;;;;;8284410;28;20208;-68
2023/06/14 17:48:46;;;;;;;11.33;7.97;;;19.20;1.00;;;;;;8270028;28;20182;-68
2023/06/14 17:52:47;;;;;;;14.53;11.90;;;19.20;1.00;;;;;;8255664;28;20270;-68
2023/06/14 17:56:48;;;;;;;11.20;7.00;;;19.20;1.00;;;;;;8252572;28;20214;-67
2023/06/14 18:00:51;;;;;;;7.00;3.93;;;19.10;1.00;;;;;;8254269;28;20191;-67
2023/06/14 18:04:54;;;;;;;6.40;5.23;;;19.20;1.00;;;;;;8252667;28;20217;-68
2023/06/14 18:08:55;;;;;;;5.77;3.83;;;19.50;1.00;;;;;;8271737;28;20208;-68
2023/06/14 18:12:56;;;;;;;5.60;4.27;;;19.60;1.00;;;;;;8267999;28;20191;-68
2023/06/14 18:16:58;;;;;;;6.47;4.40;;;19.50;1.00;;;;;;8258370;28;20192;-67
2023/06/14 18:21:02;;;;;;;6.93;5.60;;;19.40;1.00;;;;;;8253291;28;20200;-68
2023/06/14 18:25:07;;;;;;;7.60;4.30;;;19.20;1.00;;;;;;8254228;28;20194;-67
2023/06/14 18:29:08;;;;;;;6.97;3.27;;;19.10;1.00;;;;;;8269857;28;20187;-68
2023/06/14 18:33:09;;;;;;;6.77;3.83;;;18.90;1.00;;;;;;8270639;28;20190;-68
2023/06/14 18:37:10;;;;;;;5.30;4.63;;;18.80;1.00;;;;;;8255733;28;20266;-67
2023/06/14 18:41:14;;;;;;;5.13;3.70;;;18.60;1.00;;;;;;8266088;28;20302;-68
2023/06/14 18:45:18;;;;;;;8.23;5.70;;;18.40;1.00;;;;;;8249085;28;20200;-68
2023/06/14 18:49:19;;;;;;;6.20;3.77;;;18.30;1.00;;;;;;8254503;28;20191;-67
2023/06/14 18:53:21;;;;;;;4.90;3.50;;;18.20;1.00;;;;;;8259650;28;20214;-66
2023/06/14 18:57:22;;;;;;;5.20;3.60;;;18.10;1.00;;;;;;8250850;28;20253;-68
2023/06/14 19:01:23;;;;;;;6.37;4.90;;;18.00;1.00;;;;;;8266987;28;20211;-67
2023/06/14 19:05:24;;;;;;;8.93;4.93;;;17.90;1.00;;;;;;8271033;28;20212;-67
2023/06/14 19:09:25;;;;;;;6.23;4.20;;;17.80;1.00;;;;;;8251462;28;20286;-67
2023/06/14 19:13:28;;;;;;;5.27;4.03;;;17.70;1.00;;;;;;8261066;28;20191;-67
2023/06/14 19:17:29;;;;;;;4.90;3.57;;;17.50;1.00;;;;;;8271311;28;20199;-67
2023/06/14 19:21:30;;;;;;;8.03;6.70;;;17.30;1.00;;;;;;8267347;28;20242;-67
2023/06/14 19:25:32;;;;;;;13.03;5.50;;;17.20;1.00;;;;;;8271078;28;20199;-68
2023/06/14 19:29:35;;;;;;;8.10;5.13;;;17.00;1.00;;;;;;8269588;28;20179;-67
2023/06/14 19:33:37;;;;;;;6.70;5.67;;;16.70;1.00;;;;;;8279826;28;20195;-67
2023/06/14 19:37:38;;;;;;;6.33;4.90;;;16.40;1.00;;;;;;8266510;28;20214;-66
2023/06/14 19:41:39;;;;;;;6.73;4.57;;;16.20;1.00;;;;;;8256352;28;20254;-67
2023/06/14 19:45:40;;;;;;;8.03;4.37;;;16.00;1.00;;;;;;8257229;28;20234;-66
2023/06/14 19:49:47;;;;;;;7.03;4.20;;;15.80;1.00;;;;;;8268775;28;20270;-66
2023/06/14 19:53:48;;;;;;;4.77;3.27;;;15.60;1.00;;;;;;8266758;28;20216;-65
2023/06/14 19:57:49;;;;;;;3.77;2.60;;;15.40;1.00;;;;;;8253109;28;20192;-65
2023/06/14 20:01:50;;;;;;;3.23;2.63;;;15.20;1.00;;;;;;8269016;28;20210;-66
2023/06/14 20:05:53;;;;;;;4.00;2.83;;;15.10;1.00;;;;;;8251193;28;20218;-65
2023/06/14 20:09:55;;;;;;;2.57;2.37;;;15.00;1.00;;;;;;8252659;28;20192;-65
2023/06/14 20:13:56;;;;;;;2.77;2.57;;;14.80;1.00;;;;;;8249693;28;20286;-66
2023/06/14 20:17:56;;;;;;;4.17;2.73;;;14.70;1.00;;;;;;8267180;28;20192;-65
2023/06/14 20:21:57;;;;;;;3.47;3.17;;;14.50;1.00;;;;;;8266908;28;20222;-65
2023/06/14 20:26:00;;;;;;;2.80;2.50;;;14.40;1.00;;;;;;8251874;28;20183;-65
2023/06/14 20:30:02;;;;;;;2.90;2.60;;;14.20;1.00;;;;;;8250649;28;20206;-65
2023/06/14 20:34:04;;;;;;;4.93;3.37;;;14.00;3.80;;;;;;8268830;28;20199;-65
2023/06/14 20:38:06;;;;;;;4.73;3.10;;;13.90;15.80;;;;;;8259447;28;20203;-66
2023/06/14 20:42:12;;;;;;;6.23;3.97;;;13.80;27.30;;;;;;8259871;28;20223;-65
2023/06/14 20:46:14;;;;;;;3.73;3.00;;;13.90;50.50;;;;;;8257296;28;20184;-66
2023/06/14 20:50:15;;;;;;;5.53;3.50;;;13.90;59.40;;;;;;8259652;28;20187;-66
2023/06/14 20:54:16;;;;;;;4.20;3.03;;;13.80;69.70;;;;;;8289729;28;20204;-66
2023/06/14 20:58:18;;;;;;;4.57;3.33;;;13.70;79.80;;;;;;8270622;28;20230;-66
2023/06/14 21:02:19;;;;;;;3.43;3.13;;;13.60;90.30;;;;;;8260501;28;20257;-66
2023/06/14 21:06:24;;;;;;;4.53;3.40;;;13.50;94.70;;;;;;8274542;28;20191;-64
2023/06/14 21:10:28;;;;;;;3.47;3.17;;;13.40;99.90;;;;;;8271401;28;20255;-66
2023/06/14 21:14:29;;;;;;;3.50;3.17;;;13.30;99.90;;;;;;8286483;28;20196;-66